sensor_id;sensor_type;location;lat;lon;timestamp;pressure;altitude;pressure_sealevel;temperature;humidity
43824;BME280;29470;53.550;9.926;2023-04-19T00:03:04;102772.06;;;11.19;50.45
43824;BME280;29470;53.550;9.926;2023-04-19T00:08:08;102766.91;;;11.19;50.50
43824;BME280;29470;53.550;9.926;2023-04-19T00:13:11;102763.97;;;11.08;51.56
43824;BME280;29470;53.550;9.926;2023-04-19T00:18:15;102763.38;;;11.01;52.50
43824;BME280;29470;53.550;9.926;2023-04-19T00:23:18;102740.81;;;11.35;51.97
43824;BME280;29470;53.550;9.926;2023-04-19T00:28:21;102757.13;;;10.99;53.65
43824;BME280;29470;53.550;9.926;2023-04-19T00:33:25;102749.84;;;11.04;53.71
43824;BME280;29470;53.550;9.926;2023-04-19T00:38:31;102738.38;;;10.75;54.07
43824;BME280;29470;53.550;9.926;2023-04-19T00:43:33;102737.31;;;11.09;52.79
43824;BME280;29470;53.550;9.926;2023-04-19T00:48:38;102739.13;;;10.74;53.29
43824;BME280;29470;53.550;9.926;2023-04-19T00:53:41;102743.75;;;11.12;52.66
43824;BME280;29470;53.550;9.926;2023-04-19T00:58:45;102743.44;;;10.92;51.89
43824;BME280;29470;53.550;9.926;2023-04-19T01:03:49;102737.75;;;10.69;52.96
43824;BME280;29470;53.550;9.926;2023-04-19T01:08:54;102738.41;;;10.84;52.42
43824;BME280;29470;53.550;9.926;2023-04-19T01:13:57;102743.09;;;10.80;52.38
43824;BME280;29470;53.550;9.926;2023-04-19T01:19:01;102742.19;;;11.05;51.07
43824;BME280;29470;53.550;9.926;2023-04-19T01:24:06;102739.31;;;11.11;51.04
43824;BME280;29470;53.550;9.926;2023-04-19T01:29:09;102736.56;;;10.83;51.72
43824;BME280;29470;53.550;9.926;2023-04-19T01:34:11;102733.97;;;11.10;50.67
43824;BME280;29470;53.550;9.926;2023-04-19T01:39:16;102741.09;;;10.59;51.75
43824;BME280;29470;53.550;9.926;2023-04-19T01:44:19;102730.00;;;10.87;50.90
43824;BME280;29470;53.550;9.926;2023-04-19T01:49:21;102727.09;;;10.66;50.20
43824;BME280;29470;53.550;9.926;2023-04-19T01:54:26;102722.84;;;10.75;50.36
43824;BME280;29470;53.550;9.926;2023-04-19T01:59:28;102723.00;;;10.77;49.66
43824;BME280;29470;53.550;9.926;2023-04-19T02:04:32;102719.78;;;10.62;50.78
43824;BME280;29470;53.550;9.926;2023-04-19T02:09:36;102711.94;;;10.27;51.34
43824;BME280;29470;53.550;9.926;2023-04-19T02:14:39;102710.50;;;10.55;50.84
43824;BME280;29470;53.550;9.926;2023-04-19T02:19:42;102704.38;;;10.46;52.03
43824;BME280;29470;53.550;9.926;2023-04-19T02:24:49;102720.31;;;9.91;53.92
43824;BME280;29470;53.550;9.926;2023-04-19T02:29:52;102723.28;;;10.71;52.72
43824;BME280;29470;53.550;9.926;2023-04-19T02:34:55;102719.19;;;10.56;53.14
43824;BME280;29470;53.550;9.926;2023-04-19T02:39:59;102723.78;;;10.25;54.12
43824;BME280;29470;53.550;9.926;2023-04-19T02:45:03;102717.50;;;10.56;54.29
43824;BME280;29470;53.550;9.926;2023-04-19T02:50:07;102721.00;;;10.57;54.37
43824;BME280;29470;53.550;9.926;2023-04-19T02:55:18;102715.41;;;10.27;55.25
43824;BME280;29470;53.550;9.926;2023-04-19T03:00:24;102719.16;;;10.47;55.19
43824;BME280;29470;53.550;9.926;2023-04-19T03:05:37;102720.56;;;10.79;54.07
43824;BME280;29470;53.550;9.926;2023-04-19T03:10:41;102710.19;;;10.61;54.63
43824;BME280;29470;53.550;9.926;2023-04-19T03:15:45;102722.16;;;10.34;54.30
43824;BME280;29470;53.550;9.926;2023-04-19T03:20:49;102713.84;;;10.54;53.54
43824;BME280;29470;53.550;9.926;2023-04-19T03:25:54;102697.00;;;10.24;54.24
43824;BME280;29470;53.550;9.926;2023-04-19T03:31:05;102696.66;;;10.12;54.17
43824;BME280;29470;53.550;9.926;2023-04-19T03:36:09;102696.50;;;10.11;54.13
43824;BME280;29470;53.550;9.926;2023-04-19T03:41:19;102698.63;;;10.49;53.19
43824;BME280;29470;53.550;9.926;2023-04-19T03:46:26;102693.28;;;10.05;53.74
43824;BME280;29470;53.550;9.926;2023-04-19T03:51:32;102685.84;;;10.41;53.19
43824;BME280;29470;53.550;9.926;2023-04-19T03:56:37;102690.72;;;10.65;52.99
43824;BME280;29470;53.550;9.926;2023-04-19T04:01:40;102687.22;;;10.55;52.94
43824;BME280;29470;53.550;9.926;2023-04-19T04:06:43;102685.22;;;10.44;52.84
43824;BME280;29470;53.550;9.926;2023-04-19T04:11:50;102685.69;;;10.49;53.05
43824;BME280;29470;53.550;9.926;2023-04-19T04:16:54;102682.78;;;10.63;52.72
43824;BME280;29470;53.550;9.926;2023-04-19T04:21:57;102677.91;;;10.66;52.64
43824;BME280;29470;53.550;9.926;2023-04-19T04:27:02;102668.66;;;10.95;51.65
43824;BME280;29470;53.550;9.926;2023-04-19T04:32:09;102674.41;;;11.10;51.26
43824;BME280;29470;53.550;9.926;2023-04-19T04:37:15;102672.31;;;10.97;50.95
43824;BME280;29470;53.550;9.926;2023-04-19T04:42:23;102676.84;;;11.17;50.82
43824;BME280;29470;53.550;9.926;2023-04-19T04:47:29;102680.97;;;10.71;51.84
43824;BME280;29470;53.550;9.926;2023-04-19T04:52:35;102679.00;;;11.03;50.87
43824;BME280;29470;53.550;9.926;2023-04-19T04:57:53;102676.69;;;10.71;50.42
43824;BME280;29470;53.550;9.926;2023-04-19T05:03:16;102679.00;;;11.03;49.52
43824;BME280;29470;53.550;9.926;2023-04-19T05:08:25;102680.53;;;11.64;47.97
43824;BME280;29470;53.550;9.926;2023-04-19T05:13:35;102677.78;;;11.63;47.83
43824;BME280;29470;53.550;9.926;2023-04-19T05:18:38;102669.88;;;11.61;47.78
43824;BME280;29470;53.550;9.926;2023-04-19T05:23:41;102677.81;;;11.54;47.69
43824;BME280;29470;53.550;9.926;2023-04-19T05:28:47;102675.41;;;11.47;47.50
43824;BME280;29470;53.550;9.926;2023-04-19T05:33:56;102663.16;;;11.63;46.96
43824;BME280;29470;53.550;9.926;2023-04-19T05:38:58;102660.53;;;11.27;47.20
43824;BME280;29470;53.550;9.926;2023-04-19T05:44:03;102665.22;;;11.40;46.90
43824;BME280;29470;53.550;9.926;2023-04-19T05:49:06;102650.78;;;11.24;46.95
43824;BME280;29470;53.550;9.926;2023-04-19T05:54:31;102652.63;;;11.08;46.89
43824;BME280;29470;53.550;9.926;2023-04-19T05:59:38;102652.91;;;11.74;45.12
43824;BME280;29470;53.550;9.926;2023-04-19T06:04:41;102653.19;;;14.93;38.69
43824;BME280;29470;53.550;9.926;2023-04-19T06:09:45;102638.34;;;16.71;34.56
43824;BME280;29470;53.550;9.926;2023-04-19T06:14:50;102641.75;;;16.70;34.80
43824;BME280;29470;53.550;9.926;2023-04-19T06:19:53;102655.47;;;16.10;34.34
43824;BME280;29470;53.550;9.926;2023-04-19T06:24:56;102642.22;;;17.61;32.60
43824;BME280;29470;53.550;9.926;2023-04-19T06:30:01;102629.34;;;19.35;30.64
43824;BME280;29470;53.550;9.926;2023-04-19T06:35:05;102627.13;;;20.58;28.86
43824;BME280;29470;53.550;9.926;2023-04-19T06:40:09;102633.75;;;20.21;28.86
43824;BME280;29470;53.550;9.926;2023-04-19T06:45:13;102619.75;;;21.62;27.87
43824;BME280;29470;53.550;9.926;2023-04-19T06:50:16;102620.97;;;24.47;24.20
43824;BME280;29470;53.550;9.926;2023-04-19T06:55:19;102620.19;;;24.07;24.40
43824;BME280;29470;53.550;9.926;2023-04-19T07:00:24;102620.25;;;24.30;24.02
43824;BME280;29470;53.550;9.926;2023-04-19T07:05:27;102615.31;;;23.77;24.32
43824;BME280;29470;53.550;9.926;2023-04-19T07:10:30;102600.22;;;24.35;24.11
43824;BME280;29470;53.550;9.926;2023-04-19T07:15:34;102603.66;;;24.76;23.30
43824;BME280;29470;53.550;9.926;2023-04-19T07:20:37;102597.34;;;24.30;23.37
43824;BME280;29470;53.550;9.926;2023-04-19T07:25:40;102596.63;;;22.24;25.07
43824;BME280;29470;53.550;9.926;2023-04-19T07:30:44;102584.88;;;22.17;25.52
43824;BME280;29470;53.550;9.926;2023-04-19T07:35:47;102579.63;;;20.40;27.13
43824;BME280;29470;53.550;9.926;2023-04-19T07:40:50;102580.97;;;23.00;24.54
43824;BME280;29470;53.550;9.926;2023-04-19T07:45:54;102577.44;;;24.17;23.40
43824;BME280;29470;53.550;9.926;2023-04-19T07:51:07;102590.47;;;20.91;26.38
43824;BME280;29470;53.550;9.926;2023-04-19T07:56:10;102574.09;;;20.97;27.13
43824;BME280;29470;53.550;9.926;2023-04-19T08:01:15;102576.38;;;20.44;27.49
43824;BME280;29470;53.550;9.926;2023-04-19T08:06:18;102578.09;;;19.26;28.42
43824;BME280;29470;53.550;9.926;2023-04-19T08:11:22;102580.00;;;17.82;30.04
43824;BME280;29470;53.550;9.926;2023-04-19T08:16:27;102593.03;;;16.01;33.21
43824;BME280;29470;53.550;9.926;2023-04-19T08:21:50;102587.06;;;15.57;33.70
43824;BME280;29470;53.550;9.926;2023-04-19T08:26:52;102581.38;;;15.29;34.26
43824;BME280;29470;53.550;9.926;2023-04-19T08:31:57;102589.03;;;15.60;33.97
43824;BME280;29470;53.550;9.926;2023-04-19T08:37:00;102576.91;;;15.06;34.87
43824;BME280;29470;53.550;9.926;2023-04-19T08:42:06;102573.56;;;15.85;33.57
43824;BME280;29470;53.550;9.926;2023-04-19T08:53:26;102568.28;;;15.96;33.49
43824;BME280;29470;53.550;9.926;2023-04-19T08:58:29;102555.13;;;15.38;34.06
43824;BME280;29470;53.550;9.926;2023-04-19T09:03:53;102550.16;;;15.19;33.71
43824;BME280;29470;53.550;9.926;2023-04-19T09:09:19;102549.66;;;15.35;33.56
43824;BME280;29470;53.550;9.926;2023-04-19T09:14:26;102534.94;;;16.03;32.73
43824;BME280;29470;53.550;9.926;2023-04-19T09:19:44;102538.16;;;16.11;32.34
43824;BME280;29470;53.550;9.926;2023-04-19T09:24:48;102536.03;;;16.41;31.73
43824;BME280;29470;53.550;9.926;2023-04-19T09:29:55;102519.97;;;16.13;32.07
43824;BME280;29470;53.550;9.926;2023-04-19T09:34:59;102513.56;;;16.81;30.88
43824;BME280;29470;53.550;9.926;2023-04-19T09:40:20;102508.19;;;16.18;28.64
43824;BME280;29470;53.550;9.926;2023-04-19T09:45:23;102501.34;;;15.96;29.57
43824;BME280;29470;53.550;9.926;2023-04-19T09:50:31;102485.50;;;16.29;29.31
43824;BME280;29470;53.550;9.926;2023-04-19T09:55:55;102484.06;;;15.86;29.81
43824;BME280;29470;53.550;9.926;2023-04-19T10:01:03;102479.50;;;16.79;27.22
43824;BME280;29470;53.550;9.926;2023-04-19T10:06:17;102470.69;;;16.65;27.26
43824;BME280;29470;53.550;9.926;2023-04-19T10:11:30;102464.25;;;16.60;26.90
43824;BME280;29470;53.550;9.926;2023-04-19T10:16:35;102456.25;;;15.63;26.28
43824;BME280;29470;53.550;9.926;2023-04-19T10:21:40;102465.28;;;16.26;25.22
43824;BME280;29470;53.550;9.926;2023-04-19T10:27:08;102473.78;;;16.00;24.74
43824;BME280;29470;53.550;9.926;2023-04-19T10:32:12;102473.78;;;15.88;24.29
43824;BME280;29470;53.550;9.926;2023-04-19T10:37:15;102458.34;;;15.91;24.73
43824;BME280;29470;53.550;9.926;2023-04-19T10:42:19;102455.72;;;16.51;24.55
43824;BME280;29470;53.550;9.926;2023-04-19T10:47:40;102444.22;;;15.77;24.88
43824;BME280;29470;53.550;9.926;2023-04-19T10:52:42;102426.72;;;16.71;24.44
43824;BME280;29470;53.550;9.926;2023-04-19T10:58:03;102430.94;;;16.57;23.79
43824;BME280;29470;53.550;9.926;2023-04-19T11:03:50;102417.00;;;16.45;23.22
43824;BME280;29470;53.550;9.926;2023-04-19T11:08:53;102411.03;;;16.10;23.07
43824;BME280;29470;53.550;9.926;2023-04-19T11:13:59;102414.88;;;16.27;22.51
43824;BME280;29470;53.550;9.926;2023-04-19T11:19:03;102393.75;;;16.36;22.93
43824;BME280;29470;53.550;9.926;2023-04-19T11:24:06;102397.69;;;16.55;22.39
43824;BME280;29470;53.550;9.926;2023-04-19T11:29:11;102393.97;;;16.39;22.90
43824;BME280;29470;53.550;9.926;2023-04-19T11:34:14;102392.66;;;15.97;22.90
43824;BME280;29470;53.550;9.926;2023-04-19T11:39:17;102397.84;;;16.44;21.91
43824;BME280;29470;53.550;9.926;2023-04-19T11:44:23;102392.78;;;16.85;21.96
43824;BME280;29470;53.550;9.926;2023-04-19T11:49:27;102386.81;;;16.37;22.72
43824;BME280;29470;53.550;9.926;2023-04-19T11:54:30;102373.19;;;16.78;21.80
43824;BME280;29470;53.550;9.926;2023-04-19T11:59:35;102380.94;;;16.27;22.59
43824;BME280;29470;53.550;9.926;2023-04-19T12:04:38;102398.06;;;16.35;22.85
43824;BME280;29470;53.550;9.926;2023-04-19T12:09:41;102384.38;;;16.14;22.69
43824;BME280;29470;53.550;9.926;2023-04-19T12:14:53;102366.88;;;16.62;22.50
43824;BME280;29470;53.550;9.926;2023-04-19T12:19:56;102376.75;;;16.05;23.01
43824;BME280;29470;53.550;9.926;2023-04-19T12:24:59;102363.81;;;16.19;22.55
43824;BME280;29470;53.550;9.926;2023-04-19T12:30:04;102349.19;;;15.97;22.78
43824;BME280;29470;53.550;9.926;2023-04-19T12:35:09;102363.19;;;16.47;22.53
43824;BME280;29470;53.550;9.926;2023-04-19T12:40:15;102344.66;;;16.07;22.99
43824;BME280;29470;53.550;9.926;2023-04-19T12:45:30;102358.00;;;16.35;23.25
43824;BME280;29470;53.550;9.926;2023-04-19T12:50:35;102354.81;;;16.39;23.54
43824;BME280;29470;53.550;9.926;2023-04-19T12:55:38;102351.19;;;15.42;24.12
43824;BME280;29470;53.550;9.926;2023-04-19T13:00:42;102355.47;;;15.87;24.08
43824;BME280;29470;53.550;9.926;2023-04-19T13:05:45;102332.88;;;16.00;24.54
43824;BME280;29470;53.550;9.926;2023-04-19T13:10:49;102335.91;;;15.82;24.80
43824;BME280;29470;53.550;9.926;2023-04-19T13:15:54;102316.09;;;16.45;24.58
43824;BME280;29470;53.550;9.926;2023-04-19T13:20:56;102317.25;;;16.25;23.87
43824;BME280;29470;53.550;9.926;2023-04-19T13:25:59;102318.69;;;15.96;23.77
43824;BME280;29470;53.550;9.926;2023-04-19T13:31:04;102318.56;;;15.71;23.51
43824;BME280;29470;53.550;9.926;2023-04-19T13:36:07;102308.25;;;15.49;23.65
43824;BME280;29470;53.550;9.926;2023-04-19T13:41:10;102309.72;;;15.81;23.80
43824;BME280;29470;53.550;9.926;2023-04-19T13:46:14;102304.06;;;15.63;24.11
43824;BME280;29470;53.550;9.926;2023-04-19T13:51:17;102308.91;;;15.10;23.32
43824;BME280;29470;53.550;9.926;2023-04-19T13:56:20;102315.31;;;14.92;24.01
43824;BME280;29470;53.550;9.926;2023-04-19T14:01:24;102299.81;;;15.17;23.89
43824;BME280;29470;53.550;9.926;2023-04-19T14:06:27;102304.28;;;15.78;23.32
43824;BME280;29470;53.550;9.926;2023-04-19T14:11:30;102299.25;;;15.21;23.53
43824;BME280;29470;53.550;9.926;2023-04-19T14:16:34;102299.59;;;15.02;23.44
43824;BME280;29470;53.550;9.926;2023-04-19T14:21:37;102291.25;;;15.30;23.72
43824;BME280;29470;53.550;9.926;2023-04-19T14:26:40;102291.78;;;15.97;23.22
43824;BME280;29470;53.550;9.926;2023-04-19T14:31:44;102283.56;;;15.43;23.54
43824;BME280;29470;53.550;9.926;2023-04-19T14:36:47;102271.66;;;15.35;23.57
43824;BME280;29470;53.550;9.926;2023-04-19T14:41:52;102265.19;;;15.30;23.71
43824;BME280;29470;53.550;9.926;2023-04-19T14:46:56;102273.78;;;15.41;23.43
43824;BME280;29470;53.550;9.926;2023-04-19T14:51:58;102254.41;;;14.67;24.12
43824;BME280;29470;53.550;9.926;2023-04-19T14:57:01;102270.22;;;14.93;24.26
43824;BME280;29470;53.550;9.926;2023-04-19T15:02:06;102254.16;;;15.10;23.10
43824;BME280;29470;53.550;9.926;2023-04-19T15:07:11;102251.69;;;15.24;23.28
43824;BME280;29470;53.550;9.926;2023-04-19T15:12:13;102255.84;;;15.10;23.61
43824;BME280;29470;53.550;9.926;2023-04-19T15:17:18;102245.88;;;14.92;24.33
43824;BME280;29470;53.550;9.926;2023-04-19T15:22:21;102252.78;;;14.80;23.76
43824;BME280;29470;53.550;9.926;2023-04-19T15:27:23;102272.41;;;15.10;22.66
43824;BME280;29470;53.550;9.926;2023-04-19T15:32:27;102235.66;;;14.49;22.93
43824;BME280;29470;53.550;9.926;2023-04-19T15:37:34;102225.69;;;14.78;21.97
43824;BME280;29470;53.550;9.926;2023-04-19T15:42:38;102226.66;;;14.68;22.22
43824;BME280;29470;53.550;9.926;2023-04-19T15:47:44;102215.63;;;14.82;22.06
43824;BME280;29470;53.550;9.926;2023-04-19T15:52:47;102221.06;;;14.85;22.23
43824;BME280;29470;53.550;9.926;2023-04-19T15:57:50;102225.94;;;14.81;22.73
43824;BME280;29470;53.550;9.926;2023-04-19T16:02:54;102218.25;;;14.94;23.31
43824;BME280;29470;53.550;9.926;2023-04-19T16:08:02;102216.09;;;15.24;23.64
43824;BME280;29470;53.550;9.926;2023-04-19T16:13:05;102222.44;;;15.04;23.97
43824;BME280;29470;53.550;9.926;2023-04-19T16:18:09;102212.03;;;14.92;24.93
43824;BME280;29470;53.550;9.926;2023-04-19T16:23:12;102215.38;;;14.79;25.25
43824;BME280;29470;53.550;9.926;2023-04-19T16:28:16;102213.03;;;15.18;25.07
43824;BME280;29470;53.550;9.926;2023-04-19T16:33:20;102220.19;;;15.21;24.96
43824;BME280;29470;53.550;9.926;2023-04-19T16:38:23;102198.94;;;15.75;24.55
43824;BME280;29470;53.550;9.926;2023-04-19T16:43:26;102216.91;;;14.99;25.09
43824;BME280;29470;53.550;9.926;2023-04-19T16:48:30;102219.25;;;14.84;25.34
43824;BME280;29470;53.550;9.926;2023-04-19T16:53:33;102214.19;;;14.29;26.29
43824;BME280;29470;53.550;9.926;2023-04-19T16:58:36;102211.47;;;14.62;26.59
43824;BME280;29470;53.550;9.926;2023-04-19T17:03:40;102229.69;;;14.62;26.77
43824;BME280;29470;53.550;9.926;2023-04-19T17:08:43;102208.69;;;15.90;25.60
43824;BME280;29470;53.550;9.926;2023-04-19T17:13:46;102217.47;;;15.07;26.33
43824;BME280;29470;53.550;9.926;2023-04-19T17:18:50;102224.03;;;15.02;26.57
43824;BME280;29470;53.550;9.926;2023-04-19T17:23:53;102215.44;;;14.35;27.09
43824;BME280;29470;53.550;9.926;2023-04-19T17:28:56;102212.59;;;14.66;27.04
43824;BME280;29470;53.550;9.926;2023-04-19T17:34:03;102210.78;;;14.53;27.12
43824;BME280;29470;53.550;9.926;2023-04-19T17:39:06;102201.75;;;14.03;28.14
43824;BME280;29470;53.550;9.926;2023-04-19T17:44:09;102208.47;;;14.11;28.45
43824;BME280;29470;53.550;9.926;2023-04-19T17:49:14;102223.56;;;14.27;28.57
43824;BME280;29470;53.550;9.926;2023-04-19T17:54:18;102220.25;;;13.96;29.42
43824;BME280;29470;53.550;9.926;2023-04-19T17:59:21;102229.09;;;13.98;29.74
43824;BME280;29470;53.550;9.926;2023-04-19T18:04:25;102219.94;;;14.25;29.79
43824;BME280;29470;53.550;9.926;2023-04-19T18:09:29;102220.66;;;14.69;29.68
43824;BME280;29470;53.550;9.926;2023-04-19T18:14:33;102225.31;;;14.05;30.67
43824;BME280;29470;53.550;9.926;2023-04-19T18:19:37;102221.28;;;13.76;30.90
43824;BME280;29470;53.550;9.926;2023-04-19T18:24:40;102226.94;;;13.60;31.05
43824;BME280;29470;53.550;9.926;2023-04-19T18:29:44;102208.16;;;13.31;31.77
43824;BME280;29470;53.550;9.926;2023-04-19T18:34:48;102221.03;;;13.73;31.06
43824;BME280;29470;53.550;9.926;2023-04-19T18:39:51;102222.13;;;13.64;31.29
43824;BME280;29470;53.550;9.926;2023-04-19T18:44:54;102209.69;;;13.39;31.91
43824;BME280;29470;53.550;9.926;2023-04-19T18:49:58;102218.56;;;13.31;32.01
43824;BME280;29470;53.550;9.926;2023-04-19T18:55:07;102219.13;;;13.60;31.79
43824;BME280;29470;53.550;9.926;2023-04-19T19:00:12;102219.81;;;13.57;32.11
43824;BME280;29470;53.550;9.926;2023-04-19T19:05:16;102218.59;;;13.10;33.22
43824;BME280;29470;53.550;9.926;2023-04-19T19:10:20;102210.50;;;12.64;34.19
43824;BME280;29470;53.550;9.926;2023-04-19T19:15:42;102215.25;;;13.01;34.06
43824;BME280;29470;53.550;9.926;2023-04-19T19:20:47;102205.00;;;13.03;34.12
43824;BME280;29470;53.550;9.926;2023-04-19T19:25:52;102205.22;;;13.16;34.16
43824;BME280;29470;53.550;9.926;2023-04-19T19:30:54;102198.06;;;13.14;34.15
43824;BME280;29470;53.550;9.926;2023-04-19T19:35:59;102201.41;;;12.80;35.00
43824;BME280;29470;53.550;9.926;2023-04-19T19:41:03;102191.53;;;12.76;35.75
43824;BME280;29470;53.550;9.926;2023-04-19T19:46:09;102188.53;;;12.50;36.27
43824;BME280;29470;53.550;9.926;2023-04-19T19:51:14;102201.78;;;12.43;36.33
43824;BME280;29470;53.550;9.926;2023-04-19T19:56:37;102190.59;;;12.75;36.06
43824;BME280;29470;53.550;9.926;2023-04-19T20:01:59;102189.47;;;12.61;36.02
43824;BME280;29470;53.550;9.926;2023-04-19T20:07:05;102202.53;;;12.11;36.77
43824;BME280;29470;53.550;9.926;2023-04-19T20:12:28;102196.19;;;12.28;36.51
43824;BME280;29470;53.550;9.926;2023-04-19T20:17:31;102208.00;;;12.56;36.61
43824;BME280;29470;53.550;9.926;2023-04-19T20:22:35;102193.47;;;11.87;38.36
43824;BME280;29470;53.550;9.926;2023-04-19T20:27:38;102179.47;;;12.45;38.47
43824;BME280;29470;53.550;9.926;2023-04-19T20:32:40;102166.59;;;12.16;39.18
43824;BME280;29470;53.550;9.926;2023-04-19T20:37:45;102167.53;;;12.37;39.80
43824;BME280;29470;53.550;9.926;2023-04-19T20:42:48;102177.25;;;12.40;40.09
43824;BME280;29470;53.550;9.926;2023-04-19T20:47:52;102186.50;;;11.96;42.25
43824;BME280;29470;53.550;9.926;2023-04-19T20:52:57;102186.31;;;12.03;43.80
43824;BME280;29470;53.550;9.926;2023-04-19T20:58:00;102181.94;;;12.54;43.24
43824;BME280;29470;53.550;9.926;2023-04-19T21:03:04;102144.81;;;12.03;43.38
43824;BME280;29470;53.550;9.926;2023-04-19T21:08:09;102148.56;;;12.38;42.01
43824;BME280;29470;53.550;9.926;2023-04-19T21:13:12;102154.84;;;12.19;41.56
43824;BME280;29470;53.550;9.926;2023-04-19T21:18:15;102133.66;;;12.56;40.30
43824;BME280;29470;53.550;9.926;2023-04-19T21:23:19;102099.41;;;12.60;39.29
43824;BME280;29470;53.550;9.926;2023-04-19T21:28:22;102107.03;;;12.59;39.43
43824;BME280;29470;53.550;9.926;2023-04-19T21:33:25;102102.63;;;12.58;38.50
43824;BME280;29470;53.550;9.926;2023-04-19T21:38:29;102097.09;;;12.96;37.65
43824;BME280;29470;53.550;9.926;2023-04-19T21:43:32;102078.06;;;12.85;37.54
43824;BME280;29470;53.550;9.926;2023-04-19T21:48:34;102088.56;;;12.87;36.78
43824;BME280;29470;53.550;9.926;2023-04-19T21:53:39;102054.28;;;13.46;35.85
43824;BME280;29470;53.550;9.926;2023-04-19T21:58:41;102047.00;;;12.87;36.00
43824;BME280;29470;53.550;9.926;2023-04-19T22:03:44;102048.81;;;12.88;35.77
43824;BME280;29470;53.550;9.926;2023-04-19T22:08:49;102038.56;;;13.66;33.85
43824;BME280;29470;53.550;9.926;2023-04-19T22:13:52;102030.09;;;12.92;34.37
43824;BME280;29470;53.550;9.926;2023-04-19T22:18:55;102031.19;;;12.84;34.01
43824;BME280;29470;53.550;9.926;2023-04-19T22:24:00;102050.09;;;12.93;35.50
43824;BME280;29470;53.550;9.926;2023-04-19T22:29:04;102046.78;;;12.20;38.59
43824;BME280;29470;53.550;9.926;2023-04-19T22:34:06;102016.59;;;12.63;37.73
43824;BME280;29470;53.550;9.926;2023-04-19T22:39:11;102021.16;;;12.45;36.63
43824;BME280;29470;53.550;9.926;2023-04-19T22:44:14;102000.34;;;12.66;36.32
43824;BME280;29470;53.550;9.926;2023-04-19T22:49:20;101995.16;;;12.66;35.25
43824;BME280;29470;53.550;9.926;2023-04-19T22:54:24;102020.03;;;12.42;36.52
43824;BME280;29470;53.550;9.926;2023-04-19T22:59:27;101971.19;;;12.15;37.60
43824;BME280;29470;53.550;9.926;2023-04-19T23:04:32;101984.00;;;12.67;35.06
43824;BME280;29470;53.550;9.926;2023-04-19T23:09:36;101963.81;;;13.07;36.25
43824;BME280;29470;53.550;9.926;2023-04-19T23:14:40;101970.41;;;12.27;37.57
43824;BME280;29470;53.550;9.926;2023-04-19T23:19:42;101959.59;;;12.32;37.13
43824;BME280;29470;53.550;9.926;2023-04-19T23:24:46;101946.94;;;12.47;36.22
43824;BME280;29470;53.550;9.926;2023-04-19T23:29:49;101944.59;;;12.18;37.15
43824;BME280;29470;53.550;9.926;2023-04-19T23:34:52;101935.13;;;12.29;39.11
43824;BME280;29470;53.550;9.926;2023-04-19T23:39:57;101926.34;;;12.49;37.96
43824;BME280;29470;53.550;9.926;2023-04-19T23:44:59;101924.00;;;12.52;38.42
43824;BME280;29470;53.550;9.926;2023-04-19T23:50:03;101927.91;;;12.14;38.90
43824;BME280;29470;53.550;9.926;2023-04-19T23:55:08;101917.41;;;12.02;38.52
